createdAt,value
2018-11-29T00:02:07.541Z,7.90
2018-11-29T00:06:15.654Z,8.00
2018-11-29T00:10:23.787Z,8.00
2018-11-29T00:14:31.917Z,8.10
2018-11-29T00:18:40.044Z,8.20
2018-11-29T00:22:50.035Z,8.30
2018-11-29T00:26:58.158Z,8.30
2018-11-29T00:31:06.274Z,8.40
2018-11-29T00:35:15.058Z,8.40
2018-11-29T00:39:23.169Z,8.40
2018-11-29T00:43:31.286Z,8.40
2018-11-29T00:47:39.475Z,8.40
2018-11-29T00:51:47.613Z,8.40
2018-11-29T00:55:55.741Z,8.50
2018-11-29T01:00:03.955Z,8.40
2018-11-29T01:04:12.077Z,8.40
2018-11-29T01:08:20.193Z,8.40
2018-11-29T01:12:28.321Z,8.40
2018-11-29T01:16:36.429Z,8.40
2018-11-29T01:20:44.557Z,8.40
2018-11-29T01:24:52.687Z,8.30
2018-11-29T01:29:00.806Z,8.30
2018-11-29T01:33:08.913Z,8.30
2018-11-29T01:37:17.028Z,8.30
2018-11-29T01:41:25.166Z,8.30
2018-11-29T01:45:33.285Z,8.30
2018-11-29T01:49:41.431Z,8.30
2018-11-29T01:53:49.547Z,8.30
2018-11-29T01:57:57.670Z,8.30
2018-11-29T02:02:05.944Z,8.30
2018-11-29T02:06:14.066Z,8.30
2018-11-29T02:10:26.713Z,8.30
2018-11-29T02:14:34.829Z,8.30
2018-11-29T02:18:42.938Z,8.20
2018-11-29T02:22:51.087Z,8.20
2018-11-29T02:26:59.225Z,8.20
2018-11-29T02:31:07.364Z,8.30
2018-11-29T02:35:15.520Z,8.30
2018-11-29T04:50:44.469Z,8.50
2018-11-29T04:54:52.611Z,8.50
2018-11-29T04:59:00.771Z,8.60
2018-11-29T05:03:08.937Z,8.60
2018-11-29T05:07:17.047Z,8.60
2018-11-29T05:11:25.170Z,8.60
2018-11-29T05:15:33.291Z,8.60
2018-11-29T05:19:41.423Z,8.60
2018-11-29T05:23:49.534Z,8.60
2018-11-29T05:27:57.658Z,8.60
2018-11-29T05:32:06.864Z,8.60
2018-11-29T05:36:14.082Z,8.60
2018-11-29T05:40:22.202Z,8.60
2018-11-29T05:44:30.322Z,8.60
2018-11-29T05:48:38.438Z,8.60
2018-11-29T05:52:46.575Z,8.60
2018-11-29T05:56:54.701Z,8.60
2018-11-29T06:01:12.713Z,8.60
2018-11-29T06:05:20.845Z,8.60
2018-11-29T06:09:28.974Z,8.60
2018-11-29T06:13:37.114Z,8.60
2018-11-29T06:17:45.243Z,8.60
2018-11-29T06:21:53.385Z,8.70
2018-11-29T06:26:01.520Z,8.70
2018-11-29T06:30:15.740Z,8.80
2018-11-29T06:34:23.870Z,8.80
2018-11-29T06:38:32.002Z,8.90
2018-11-29T06:42:40.150Z,8.90
2018-11-29T06:46:48.273Z,8.90
2018-11-29T06:50:56.419Z,8.80
2018-11-29T06:55:07.913Z,8.80
2018-11-29T06:59:16.027Z,8.80
2018-11-29T07:03:28.748Z,8.70
2018-11-29T07:07:32.270Z,8.70
2018-11-29T07:11:40.389Z,8.60
2018-11-29T07:15:48.521Z,8.60
2018-11-29T07:19:56.629Z,8.50
2018-11-29T07:24:05.243Z,8.50
2018-11-29T07:28:13.382Z,8.40
2018-11-29T07:32:24.011Z,8.40
2018-11-29T07:36:32.165Z,8.50
2018-11-29T07:40:40.283Z,8.40
2018-11-29T07:44:48.389Z,8.50
2018-11-29T07:48:56.522Z,8.60
2018-11-29T07:53:05.033Z,8.60
2018-11-29T07:57:13.153Z,8.70
2018-11-29T08:01:21.293Z,8.70
2018-11-29T08:05:29.429Z,8.70
2018-11-29T08:09:37.549Z,8.70
2018-11-29T08:13:45.769Z,8.70
2018-11-29T08:17:53.905Z,8.80
2018-11-29T08:22:02.032Z,8.80
2018-11-29T08:26:10.156Z,8.80
2018-11-29T08:30:18.268Z,8.90
2018-11-29T08:34:27.436Z,9.00
2018-11-29T08:38:35.565Z,9.10
2018-11-29T08:42:43.690Z,9.20
2018-11-29T08:46:51.814Z,9.20
2018-11-29T08:50:59.954Z,9.30
2018-11-29T08:55:09.518Z,9.30
2018-11-29T08:59:17.667Z,9.40
2018-11-29T09:03:25.807Z,9.40
2018-11-29T09:07:33.962Z,9.40
2018-11-29T09:11:42.123Z,9.50
2018-11-29T09:15:50.287Z,9.50
2018-11-29T09:19:58.440Z,9.60
2018-11-29T09:24:06.602Z,9.70
2018-11-29T09:28:14.769Z,9.70
2018-11-29T09:32:22.933Z,9.80
2018-11-29T09:36:31.110Z,9.90
2018-11-29T09:40:39.266Z,9.90
2018-11-29T09:44:47.429Z,9.90
2018-11-29T09:48:55.585Z,10.00
2018-11-29T09:53:03.737Z,10.00
2018-11-29T09:57:11.893Z,9.90
2018-11-29T10:01:20.043Z,9.90
2018-11-29T10:05:28.191Z,9.80
2018-11-29T10:09:36.334Z,9.70
2018-11-29T10:13:46.370Z,9.60
2018-11-29T10:17:52.664Z,9.60
2018-11-29T10:22:00.834Z,9.50
2018-11-29T10:26:08.999Z,9.50
2018-11-29T10:30:19.987Z,9.60
2018-11-29T10:34:28.174Z,9.60
2018-11-29T10:38:36.360Z,9.70
2018-11-29T10:42:44.522Z,9.70
2018-11-29T10:46:52.684Z,9.70
2018-11-29T10:51:00.841Z,9.70
2018-11-29T10:55:10.811Z,9.80
2018-11-29T10:59:18.962Z,9.90
2018-11-29T11:03:27.126Z,9.90
2018-11-29T11:07:35.278Z,10.00
2018-11-29T11:11:43.406Z,10.00
2018-11-29T11:15:51.564Z,10.00
2018-11-29T11:19:59.757Z,10.00
2018-11-29T11:24:07.907Z,10.10
2018-11-29T11:28:16.094Z,10.10
2018-11-29T11:32:24.244Z,10.00
2018-11-29T11:36:32.382Z,9.90
2018-11-29T11:40:40.545Z,9.80
2018-11-29T11:44:48.677Z,9.80
2018-11-29T11:48:56.832Z,9.80
2018-11-29T11:53:06.379Z,9.80
2018-11-29T11:57:14.522Z,9.80
2018-11-29T12:01:22.693Z,9.80
2018-11-29T12:05:30.854Z,10.00
2018-11-29T12:09:39.022Z,10.10
2018-11-29T12:13:47.182Z,10.20
2018-11-29T12:17:55.397Z,10.20
2018-11-29T12:22:03.554Z,10.10
2018-11-29T12:26:11.718Z,10.10
2018-11-29T12:30:26.066Z,10.10
2018-11-29T12:34:34.241Z,10.10
2018-11-29T12:38:42.414Z,10.10
2018-11-29T12:42:50.579Z,10.10
2018-11-29T12:46:58.754Z,10.10
2018-11-29T12:51:06.930Z,10.10
2018-11-29T12:55:16.104Z,10.10
2018-11-29T12:59:24.274Z,10.10
2018-11-29T13:03:32.433Z,10.10
2018-11-29T13:07:43.332Z,10.10
2018-11-29T13:11:48.972Z,10.10
2018-11-29T13:15:57.104Z,10.10
2018-11-29T13:20:12.173Z,10.10
2018-11-29T13:24:20.350Z,10.10
2018-11-29T13:28:28.518Z,10.10
2018-11-29T13:32:36.687Z,10.10
2018-11-29T13:36:44.846Z,10.10
2018-11-29T13:40:53.011Z,10.10
2018-11-29T13:45:01.171Z,10.10
2018-11-29T13:49:09.470Z,10.00
2018-11-29T13:53:17.622Z,10.00
2018-11-29T13:57:25.766Z,10.10
2018-11-29T14:01:33.915Z,10.10
2018-11-29T14:05:42.045Z,10.10
2018-11-29T14:09:50.204Z,10.00
2018-11-29T14:13:58.471Z,10.00
2018-11-29T14:18:07.106Z,10.00
2018-11-29T14:22:15.311Z,10.00
2018-11-29T14:26:23.413Z,9.90
2018-11-29T14:30:31.613Z,10.00
2018-11-29T14:34:39.758Z,9.90
2018-11-29T14:38:47.949Z,9.90
2018-11-29T14:42:56.133Z,9.90
2018-11-29T14:47:04.285Z,9.90
2018-11-29T14:51:12.440Z,9.70
2018-11-29T14:55:21.789Z,9.60
2018-11-29T14:59:28.764Z,9.50
2018-11-29T15:03:36.881Z,9.40
2018-11-29T15:07:45.066Z,9.40
2018-11-29T15:11:53.285Z,9.30
2018-11-29T15:16:01.438Z,9.20
2018-11-29T15:20:12.017Z,9.10
2018-11-29T15:24:20.201Z,9.10
2018-11-29T15:28:28.352Z,9.00
2018-11-29T15:32:36.586Z,9.00
2018-11-29T15:36:44.754Z,8.90
2018-11-29T15:40:52.955Z,8.80
2018-11-29T15:45:01.106Z,8.70
2018-11-29T15:49:09.241Z,8.70
2018-11-29T15:53:17.392Z,8.70
2018-11-29T15:57:25.542Z,8.70
2018-11-29T16:01:33.678Z,8.70
2018-11-29T16:05:41.846Z,8.70
2018-11-29T16:09:49.998Z,8.70
2018-11-29T16:13:58.137Z,8.70
2018-11-29T16:18:06.346Z,8.80
2018-11-29T16:22:14.489Z,8.80
2018-11-29T16:26:22.642Z,8.80
2018-11-29T16:30:32.337Z,8.80
2018-11-29T16:34:40.486Z,8.80
2018-11-29T16:38:48.765Z,8.80
2018-11-29T16:42:56.917Z,8.80
2018-11-29T16:47:05.129Z,8.80
2018-11-29T16:51:13.337Z,8.80
2018-11-29T16:55:21.520Z,8.80
2018-11-29T16:59:29.678Z,8.80
2018-11-29T17:03:37.838Z,8.80
2018-11-29T17:07:46.040Z,8.90
2018-11-29T17:11:54.191Z,8.80
2018-11-29T17:16:02.358Z,8.90
2018-11-29T17:20:12.604Z,8.80
2018-11-29T17:24:20.801Z,8.80
2018-11-29T17:28:28.955Z,8.80
2018-11-29T17:32:37.206Z,8.70
2018-11-29T17:36:45.362Z,8.60
2018-11-29T17:40:53.530Z,8.60
2018-11-29T17:45:01.902Z,8.50
2018-11-29T17:49:10.059Z,8.50
2018-11-29T17:54:42.766Z,8.60
2018-11-29T17:58:50.932Z,8.60
2018-11-29T18:02:59.090Z,8.60
2018-11-29T18:07:07.277Z,8.70
2018-11-29T18:11:15.442Z,8.70
2018-11-29T18:15:26.265Z,8.80
2018-11-29T18:19:34.425Z,8.90
2018-11-29T18:23:47.009Z,9.10
2018-11-29T18:27:51.688Z,9.20
2018-11-29T18:31:59.835Z,9.30
2018-11-29T18:36:07.962Z,9.40
2018-11-29T18:40:18.086Z,9.40
2018-11-29T18:44:26.242Z,9.50
2018-11-29T18:48:34.416Z,9.50
2018-11-29T18:52:42.741Z,9.50
2018-11-29T18:56:50.890Z,9.50
2018-11-29T19:00:59.009Z,9.40
2018-11-29T19:05:08.157Z,9.30
2018-11-29T19:09:16.282Z,9.30
2018-11-29T19:13:24.417Z,9.30
2018-11-29T19:17:32.577Z,9.30
2018-11-29T19:21:40.717Z,9.30
2018-11-29T19:25:48.866Z,9.30
2018-11-29T19:29:57.075Z,9.30
2018-11-29T19:34:05.917Z,9.40
2018-11-29T19:38:14.058Z,9.40
2018-11-29T19:42:22.272Z,9.40
2018-11-29T19:46:30.429Z,9.40
2018-11-29T19:50:38.622Z,9.40
2018-11-29T19:54:46.829Z,9.40
2018-11-29T19:58:55.074Z,9.40
2018-11-29T20:03:03.297Z,9.40
2018-11-29T20:07:11.493Z,9.40
2018-11-29T20:11:20.031Z,9.40
2018-11-29T20:15:28.374Z,9.40
2018-11-29T20:19:36.853Z,9.40
2018-11-29T20:23:45.103Z,9.50
2018-11-29T20:27:53.354Z,9.50
2018-11-29T20:32:01.545Z,9.50
2018-11-29T20:36:09.730Z,9.50
2018-11-29T20:40:19.078Z,9.50
2018-11-29T20:44:27.296Z,9.50
2018-11-29T20:48:35.605Z,9.60
2018-11-29T20:52:44.189Z,9.60
2018-11-29T20:56:52.345Z,9.60
2018-11-29T21:01:00.590Z,9.60
2018-11-29T21:05:10.369Z,9.60
2018-11-29T21:09:18.578Z,9.60
2018-11-29T21:13:26.753Z,9.70
2018-11-29T21:17:35.265Z,9.70
2018-11-29T21:21:43.462Z,9.70
2018-11-29T21:25:51.706Z,9.70
2018-11-29T21:29:59.873Z,9.70
2018-11-29T21:34:08.029Z,9.80
2018-11-29T21:38:17.562Z,9.80
2018-11-29T21:42:25.826Z,9.90
2018-11-29T21:46:34.162Z,9.90
2018-11-29T21:50:42.407Z,10.00
2018-11-29T21:54:50.577Z,10.00
2018-11-29T21:58:58.734Z,10.00
2018-11-29T22:03:06.897Z,10.00
2018-11-29T22:07:15.058Z,10.00
2018-11-29T22:11:23.230Z,10.00
2018-11-29T22:15:31.403Z,9.90
2018-11-29T22:19:39.566Z,10.00
2018-11-29T22:23:47.742Z,10.00
2018-11-29T22:27:55.881Z,10.10
2018-11-29T22:32:04.056Z,10.10
2018-11-29T22:36:12.271Z,10.10
2018-11-29T22:40:20.409Z,10.10
2018-11-29T22:44:28.577Z,10.10
2018-11-29T22:48:36.799Z,10.10
2018-11-29T22:52:44.954Z,10.00
2018-11-29T22:56:53.118Z,10.00
2018-11-29T23:01:01.297Z,9.90
2018-11-29T23:05:09.800Z,9.90
2018-11-29T23:09:18.016Z,9.90
2018-11-29T23:13:26.194Z,9.80
2018-11-29T23:17:34.377Z,9.90
2018-11-29T23:21:42.557Z,9.90
2018-11-29T23:25:50.755Z,9.90
2018-11-29T23:29:58.926Z,9.90
2018-11-29T23:34:07.091Z,9.90
2018-11-29T23:38:15.242Z,9.90
2018-11-29T23:42:23.413Z,9.90
2018-11-29T23:46:31.637Z,9.90
2018-11-29T23:50:39.818Z,9.90
2018-11-29T23:54:48.062Z,9.80
2018-11-29T23:58:56.202Z,9.80
